PWSweather.com
Personal Weather Stations
Station Observations
KNCCHINA3
Red Tractor Trail, China Grove, NC 28023

Red Tractor TrailChina Grove, NC 28023

Lat: 35.59751, Lon: -80.60201

Elevation: 800

Station Type: Oregon Scientific WMR 968

http://www.joesweathergarage.com

High Low Average
Temperature 59.3°F15.2°C 30.6°F-0.8°C 47.0°F8.3°C
Dew Point 48.4°F9.1°C 16.1°F-8.8°C 33.8°F1.0°C
Winds 14.3 mph 23.0 kmh Calm Calm 5.0 mph SW8.0 kmh SW
Wind Gusts 21.4 mph34.4 kmh -- 10.0 mph16.1 kmh
Humidity 78% 40% 61%
Pressure 30.18 in1022.0 mb 29.88 in1011.9 mb -
Precipitation 0.00 in0.0 mm - -
Hour Temp Dew Point Humidity Winds Wind Gusts Pressure Precip Precip Rate Daily Precip Total
12:05 AM 30.8°F-0.7°C 16.1°F-8.8°C 54% 2.1 mph NE3.4 kmh NE 2.2 mph3.5 kmh 30.15 in1021.0 mb 0.00 in0.0 mm 0.00 in0.0 mm 0.00 in0.0 mm
12:10 AM 31.0°F-0.6°C 16.3°F-8.7°C 54% Calm Calm 2.2 mph3.5 kmh 30.15 in1021.0 mb 0.00 in0.0 mm 0.00 in0.0 mm 0.00 in0.0 mm
12:15 AM 31.2°F-0.4°C 16.5°F-8.6°C 54% Calm Calm 2.2 mph3.5 kmh 30.15 in1021.0 mb 0.00 in0.0 mm 0.00 in0.0 mm 0.00 in0.0 mm
12:20 AM 31.5°F-0.3°C 16.8°F-8.4°C 54% 2.0 mph E3.2 kmh E 4.0 mph6.4 kmh 30.15 in1021.0 mb 0.00 in0.0 mm 0.00 in0.0 mm 0.00 in0.0 mm
12:25 AM 31.2°F-0.4°C 16.5°F-8.6°C 54% Calm Calm 4.0 mph6.4 kmh 30.15 in1021.0 mb 0.00 in0.0 mm 0.00 in0.0 mm 0.00 in0.0 mm
12:30 AM 31.0°F-0.6°C 16.7°F-8.5°C 55% Calm Calm -- 30.12 in1020.0 mb 0.00 in0.0 mm 0.00 in0.0 mm 0.00 in0.0 mm
12:35 AM 30.8°F-0.7°C 16.5°F-8.6°C 55% Calm Calm -- 30.12 in1020.0 mb 0.00 in0.0 mm 0.00 in0.0 mm 0.00 in0.0 mm
12:40 AM 30.6°F-0.8°C 16.4°F-8.7°C 55% Calm Calm -- 30.12 in1020.0 mb 0.00 in0.0 mm 0.00 in0.0 mm 0.00 in0.0 mm
12:45 AM 31.0°F-0.6°C 16.7°F-8.5°C 55% Calm Calm 2.2 mph3.5 kmh 30.12 in1020.0 mb 0.00 in0.0 mm 0.00 in0.0 mm 0.00 in0.0 mm
12:51 AM 31.0°F-0.6°C 16.7°F-8.5°C 55% Calm Calm 2.2 mph3.5 kmh 30.12 in1020.0 mb 0.00 in0.0 mm 0.00 in0.0 mm 0.00 in0.0 mm
12:56 AM 31.0°F-0.6°C 16.7°F-8.5°C 55% Calm Calm -- 30.12 in1020.0 mb 0.00 in0.0 mm 0.00 in0.0 mm 0.00 in0.0 mm
01:01 AM 31.0°F-0.6°C 16.7°F-8.5°C 55% Calm Calm -- 30.12 in1020.0 mb 0.00 in0.0 mm 0.00 in0.0 mm 0.00 in0.0 mm
01:06 AM 30.8°F-0.7°C 17.0°F-8.3°C 56% 2.7 mph S4.3 kmh S 3.2 mph5.1 kmh 30.12 in1020.0 mb 0.00 in0.0 mm 0.00 in0.0 mm 0.00 in0.0 mm
01:11 AM 30.8°F-0.7°C 17.4°F-8.1°C 57% Calm Calm 3.2 mph5.1 kmh 30.12 in1020.0 mb 0.00 in0.0 mm 0.00 in0.0 mm 0.00 in0.0 mm
01:16 AM 31.5°F-0.3°C 18.9°F-7.3°C 59% 3.5 mph SSW5.6 kmh SSW 5.0 mph8.0 kmh 30.12 in1020.0 mb 0.00 in0.0 mm 0.00 in0.0 mm 0.00 in0.0 mm
01:21 AM 32.4°F0.2°C 20.5°F-6.4°C 61% 4.2 mph SSW6.8 kmh SSW 5.8 mph9.3 kmh 30.12 in1020.0 mb 0.00 in0.0 mm 0.00 in0.0 mm 0.00 in0.0 mm
01:26 AM 33.5°F0.8°C 22.3°F-5.4°C 63% 4.6 mph SW7.4 kmh SW 5.8 mph9.3 kmh 30.12 in1020.0 mb 0.00 in0.0 mm 0.00 in0.0 mm 0.00 in0.0 mm
01:31 AM 34.8°F1.6°C 22.4°F-5.3°C 60% 5.6 mph SSW9.0 kmh SSW 9.8 mph15.8 kmh 30.12 in1020.0 mb 0.00 in0.0 mm 0.00 in0.0 mm 0.00 in0.0 mm
01:36 AM 35.7°F2.1°C 22.4°F-5.3°C 58% 3.7 mph SSW6.0 kmh SSW 9.8 mph15.8 kmh 30.12 in1020.0 mb 0.00 in0.0 mm 0.00 in0.0 mm 0.00 in0.0 mm
01:44 AM 36.2°F2.3°C 22.0°F-5.6°C 56% 5.2 mph SW8.4 kmh SW 8.0 mph12.9 kmh 30.12 in1020.0 mb 0.00 in0.0 mm 0.00 in0.0 mm 0.00 in0.0 mm
01:48 AM 36.6°F2.6°C 22.4°F-5.3°C 56% 5.2 mph SSW8.4 kmh SSW 8.0 mph12.9 kmh 30.12 in1020.0 mb 0.00 in0.0 mm 0.00 in0.0 mm 0.00 in0.0 mm
01:53 AM 36.6°F2.6°C 22.0°F-5.6°C 55% 5.0 mph SW8.0 kmh SW 6.2 mph10.0 kmh 30.12 in1020.0 mb 0.00 in0.0 mm 0.00 in0.0 mm 0.00 in0.0 mm
01:58 AM 36.6°F2.6°C 22.0°F-5.6°C 55% 3.8 mph SW6.1 kmh SW 5.8 mph9.3 kmh 30.12 in1020.0 mb 0.00 in0.0 mm 0.00 in0.0 mm 0.00 in0.0 mm
02:03 AM 36.4°F2.4°C 21.8°F-5.7°C 55% 2.9 mph SSE4.7 kmh SSE 5.8 mph9.3 kmh 30.12 in1020.0 mb 0.00 in0.0 mm 0.00 in0.0 mm 0.00 in0.0 mm
02:09 AM 36.4°F2.4°C 21.8°F-5.7°C 55% 3.9 mph S6.3 kmh S 5.8 mph9.3 kmh 30.12 in1020.0 mb 0.00 in0.0 mm 0.00 in0.0 mm 0.00 in0.0 mm
02:14 AM 36.2°F2.3°C 21.6°F-5.8°C 55% 4.1 mph SSW6.6 kmh SSW 5.8 mph9.3 kmh 30.12 in1020.0 mb 0.00 in0.0 mm 0.00 in0.0 mm 0.00 in0.0 mm
02:19 AM 36.2°F2.3°C 21.6°F-5.8°C 55% 3.8 mph S6.1 kmh S 5.0 mph8.0 kmh 30.12 in1020.0 mb 0.00 in0.0 mm 0.00 in0.0 mm 0.00 in0.0 mm
02:24 AM 36.0°F2.2°C 21.4°F-5.9°C 55% 3.4 mph S5.5 kmh S 5.0 mph8.0 kmh 30.12 in1020.0 mb 0.00 in0.0 mm 0.00 in0.0 mm 0.00 in0.0 mm
02:29 AM 36.2°F2.3°C 21.6°F-5.8°C 55% 5.5 mph SW8.9 kmh SW 7.6 mph12.2 kmh 30.12 in1020.0 mb 0.00 in0.0 mm 0.00 in0.0 mm 0.00 in0.0 mm
02:36 AM 36.8°F2.7°C 22.6°F-5.2°C 56% 5.0 mph SW8.0 kmh SW 7.6 mph12.2 kmh 30.12 in1020.0 mb 0.00 in0.0 mm 0.00 in0.0 mm 0.00 in0.0 mm
02:41 AM 36.6°F2.6°C 22.4°F-5.3°C 56% 4.6 mph S7.4 kmh S 6.8 mph10.9 kmh 30.12 in1020.0 mb 0.00 in0.0 mm 0.00 in0.0 mm 0.00 in0.0 mm
02:46 AM 36.2°F2.3°C 22.0°F-5.6°C 56% 2.5 mph SSW4.0 kmh SSW 6.8 mph10.9 kmh 30.09 in1019.0 mb 0.00 in0.0 mm 0.00 in0.0 mm 0.00 in0.0 mm
02:51 AM 36.0°F2.2°C 21.8°F-5.7°C 56% 3.8 mph SSW6.1 kmh SSW 5.0 mph8.0 kmh 30.09 in1019.0 mb 0.00 in0.0 mm 0.00 in0.0 mm 0.00 in0.0 mm
02:57 AM 36.2°F2.3°C 22.0°F-5.6°C 56% 3.2 mph SW5.1 kmh SW 5.0 mph8.0 kmh 30.09 in1019.0 mb 0.00 in0.0 mm 0.00 in0.0 mm 0.00 in0.0 mm
03:02 AM 36.0°F2.2°C 21.8°F-5.7°C 56% 2.0 mph WNW3.2 kmh WNW 5.4 mph8.7 kmh 30.09 in1019.0 mb 0.00 in0.0 mm 0.00 in0.0 mm 0.00 in0.0 mm
03:09 AM 35.7°F2.1°C 21.6°F-5.8°C 56% 2.7 mph SSE4.3 kmh SSE 3.2 mph5.1 kmh 30.09 in1019.0 mb 0.00 in0.0 mm 0.00 in0.0 mm 0.00 in0.0 mm
03:14 AM 35.7°F2.1°C 22.0°F-5.6°C 57% 2.5 mph SSW4.0 kmh SSW 5.0 mph8.0 kmh 30.09 in1019.0 mb 0.00 in0.0 mm 0.00 in0.0 mm 0.00 in0.0 mm
03:21 AM 36.0°F2.2°C 22.7°F-5.2°C 58% 5.3 mph SW8.5 kmh SW 11.2 mph18.0 kmh 30.09 in1019.0 mb 0.00 in0.0 mm 0.00 in0.0 mm 0.00 in0.0 mm
03:26 AM 36.0°F2.2°C 22.3°F-5.4°C 57% Calm Calm 11.2 mph18.0 kmh 30.09 in1019.0 mb 0.00 in0.0 mm 0.00 in0.0 mm 0.00 in0.0 mm
03:31 AM 36.0°F2.2°C 22.3°F-5.4°C 57% 3.1 mph S5.0 kmh S 5.4 mph8.7 kmh 30.09 in1019.0 mb 0.00 in0.0 mm 0.00 in0.0 mm 0.00 in0.0 mm
03:36 AM 36.4°F2.4°C 23.1°F-4.9°C 58% 6.1 mph SW9.8 kmh SW 9.4 mph15.1 kmh 30.09 in1019.0 mb 0.00 in0.0 mm 0.00 in0.0 mm 0.00 in0.0 mm
03:41 AM 36.6°F2.6°C 23.3°F-4.8°C 58% 3.0 mph SSW4.8 kmh SSW 9.4 mph15.1 kmh 30.09 in1019.0 mb 0.00 in0.0 mm 0.00 in0.0 mm 0.00 in0.0 mm
03:46 AM 36.8°F2.7°C 23.9°F-4.5°C 59% 5.0 mph W8.0 kmh W 6.2 mph10.0 kmh 30.12 in1020.0 mb 0.00 in0.0 mm 0.00 in0.0 mm 0.00 in0.0 mm
03:52 AM 36.8°F2.7°C 23.9°F-4.5°C 59% 4.3 mph SW6.9 kmh SW 6.2 mph10.0 kmh 30.12 in1020.0 mb 0.00 in0.0 mm 0.00 in0.0 mm 0.00 in0.0 mm
03:57 AM 36.9°F2.7°C 24.0°F-4.4°C 59% 3.8 mph SW6.1 kmh SW 6.8 mph10.9 kmh 30.12 in1020.0 mb 0.00 in0.0 mm 0.00 in0.0 mm 0.00 in0.0 mm
04:02 AM 37.1°F2.8°C 24.1°F-4.4°C 59% 2.9 mph SW4.7 kmh SW 6.8 mph10.9 kmh 30.12 in1020.0 mb 0.00 in0.0 mm 0.00 in0.0 mm 0.00 in0.0 mm
04:07 AM 37.3°F2.9°C 24.3°F-4.3°C 59% 5.8 mph W9.3 kmh W 7.6 mph12.2 kmh 30.12 in1020.0 mb 0.00 in0.0 mm 0.00 in0.0 mm 0.00 in0.0 mm
04:12 AM 37.3°F2.9°C 24.3°F-4.3°C 59% 5.4 mph SW8.7 kmh SW 7.6 mph12.2 kmh 30.12 in1020.0 mb 0.00 in0.0 mm 0.00 in0.0 mm 0.00 in0.0 mm
04:17 AM 37.3°F2.9°C 24.3°F-4.3°C 59% 2.9 mph SSW4.7 kmh SSW 7.6 mph12.2 kmh 30.12 in1020.0 mb 0.00 in0.0 mm 0.00 in0.0 mm 0.00 in0.0 mm
04:22 AM 37.1°F2.8°C 24.6°F-4.1°C 60% 4.4 mph SW7.1 kmh SW 5.8 mph9.3 kmh 30.12 in1020.0 mb 0.00 in0.0 mm 0.00 in0.0 mm 0.00 in0.0 mm
04:27 AM 36.9°F2.7°C 24.4°F-4.2°C 60% 3.4 mph SW5.5 kmh SW 5.8 mph9.3 kmh 30.12 in1020.0 mb 0.00 in0.0 mm 0.00 in0.0 mm 0.00 in0.0 mm
04:32 AM 36.6°F2.6°C 24.5°F-4.2°C 61% 3.4 mph S5.5 kmh S 5.8 mph9.3 kmh 30.12 in1020.0 mb 0.00 in0.0 mm 0.00 in0.0 mm 0.00 in0.0 mm
04:37 AM 36.6°F2.6°C 24.9°F-3.9°C 62% 4.5 mph SSW7.2 kmh SSW 5.8 mph9.3 kmh 30.12 in1020.0 mb 0.00 in0.0 mm 0.00 in0.0 mm 0.00 in0.0 mm
04:43 AM 36.4°F2.4°C 25.1°F-3.8°C 63% 4.9 mph SW7.9 kmh SW 6.2 mph10.0 kmh 30.12 in1020.0 mb 0.00 in0.0 mm 0.00 in0.0 mm 0.00 in0.0 mm
04:48 AM 36.4°F2.4°C 25.5°F-3.6°C 64% 5.4 mph SW8.7 kmh SW 6.2 mph10.0 kmh 30.12 in1020.0 mb 0.00 in0.0 mm 0.00 in0.0 mm 0.00 in0.0 mm
04:53 AM 36.4°F2.4°C 25.8°F-3.4°C 65% 4.9 mph SW7.9 kmh SW 6.2 mph10.0 kmh 30.12 in1020.0 mb 0.00 in0.0 mm 0.00 in0.0 mm 0.00 in0.0 mm
04:58 AM 36.2°F2.3°C 26.0°F-3.3°C 66% 4.7 mph SW7.6 kmh SW 6.8 mph10.9 kmh 30.12 in1020.0 mb 0.00 in0.0 mm 0.00 in0.0 mm 0.00 in0.0 mm
05:03 AM 36.2°F2.3°C 26.4°F-3.1°C 67% 5.8 mph SW9.3 kmh SW 7.6 mph12.2 kmh 30.12 in1020.0 mb 0.00 in0.0 mm 0.00 in0.0 mm 0.00 in0.0 mm
05:08 AM 36.4°F2.4°C 26.9°F-2.8°C 68% 6.2 mph SSW10.0 kmh SSW 8.0 mph12.9 kmh 30.12 in1020.0 mb 0.00 in0.0 mm 0.00 in0.0 mm 0.00 in0.0 mm
05:15 AM 36.4°F2.4°C 26.6°F-3.0°C 67% 4.0 mph SW6.4 kmh SW 8.0 mph12.9 kmh 30.12 in1020.0 mb 0.00 in0.0 mm 0.00 in0.0 mm 0.00 in0.0 mm
05:20 AM 36.2°F2.3°C 26.4°F-3.1°C 67% 4.2 mph S6.8 kmh S 7.2 mph11.6 kmh 30.12 in1020.0 mb 0.00 in0.0 mm 0.00 in0.0 mm 0.00 in0.0 mm
05:25 AM 36.2°F2.3°C 26.7°F-2.9°C 68% 5.0 mph SW8.0 kmh SW 6.8 mph10.9 kmh 30.12 in1020.0 mb 0.00 in0.0 mm 0.00 in0.0 mm 0.00 in0.0 mm
05:30 AM 36.4°F2.4°C 27.3°F-2.6°C 69% 6.0 mph SW9.7 kmh SW 7.2 mph11.6 kmh 30.12 in1020.0 mb 0.00 in0.0 mm 0.00 in0.0 mm 0.00 in0.0 mm
05:35 AM 36.2°F2.3°C 26.7°F-2.9°C 68% 3.9 mph SSW6.3 kmh SSW 8.0 mph12.9 kmh 30.12 in1020.0 mb 0.00 in0.0 mm 0.00 in0.0 mm 0.00 in0.0 mm
05:40 AM 36.0°F2.2°C 26.9°F-2.8°C 69% 4.8 mph S7.7 kmh S 8.0 mph12.9 kmh 30.12 in1020.0 mb 0.00 in0.0 mm 0.00 in0.0 mm 0.00 in0.0 mm
05:47 AM 36.0°F2.2°C 27.2°F-2.7°C 70% 5.6 mph SSW9.0 kmh SSW 7.6 mph12.2 kmh 30.12 in1020.0 mb 0.00 in0.0 mm 0.00 in0.0 mm 0.00 in0.0 mm
05:52 AM 36.0°F2.2°C 27.6°F-2.4°C 71% 5.9 mph SW9.5 kmh SW 8.0 mph12.9 kmh 30.12 in1020.0 mb 0.00 in0.0 mm 0.00 in0.0 mm 0.00 in0.0 mm
05:57 AM 35.9°F2.2°C 27.5°F-2.5°C 71% 3.9 mph SSW6.3 kmh SSW 8.0 mph12.9 kmh 30.12 in1020.0 mb 0.00 in0.0 mm 0.00 in0.0 mm 0.00 in0.0 mm
06:02 AM 36.0°F2.2°C 27.6°F-2.4°C 71% 4.7 mph SSW7.6 kmh SSW 8.0 mph12.9 kmh 30.12 in1020.0 mb 0.00 in0.0 mm 0.00 in0.0 mm 0.00 in0.0 mm
06:08 AM 36.0°F2.2°C 27.9°F-2.3°C 72% 6.1 mph SSW9.8 kmh SSW 8.6 mph13.8 kmh 30.12 in1020.0 mb 0.00 in0.0 mm 0.00 in0.0 mm 0.00 in0.0 mm
06:13 AM 36.0°F2.2°C 27.9°F-2.3°C 72% 4.8 mph S7.7 kmh S 8.6 mph13.8 kmh 30.12 in1020.0 mb 0.00 in0.0 mm 0.00 in0.0 mm 0.00 in0.0 mm
06:21 AM 36.0°F2.2°C 27.9°F-2.3°C 72% 5.2 mph SW8.4 kmh SW 8.0 mph12.9 kmh 30.15 in1021.0 mb 0.00 in0.0 mm 0.00 in0.0 mm 0.00 in0.0 mm
06:26 AM 36.0°F2.2°C 27.9°F-2.3°C 72% 3.8 mph SSW6.1 kmh SSW 7.6 mph12.2 kmh 30.15 in1021.0 mb 0.00 in0.0 mm 0.00 in0.0 mm 0.00 in0.0 mm
06:31 AM 35.7°F2.1°C 27.6°F-2.4°C 72% 3.0 mph SW4.8 kmh SW 7.6 mph12.2 kmh 30.15 in1021.0 mb 0.00 in0.0 mm 0.00 in0.0 mm 0.00 in0.0 mm
06:36 AM 35.5°F1.9°C 27.4°F-2.6°C 72% 4.1 mph SSW6.6 kmh SSW 5.4 mph8.7 kmh 30.15 in1021.0 mb 0.00 in0.0 mm 0.00 in0.0 mm 0.00 in0.0 mm
06:41 AM 35.5°F1.9°C 28.1°F-2.2°C 74% 4.9 mph S7.9 kmh S 5.8 mph9.3 kmh 30.15 in1021.0 mb 0.00 in0.0 mm 0.00 in0.0 mm 0.00 in0.0 mm
06:46 AM 35.5°F1.9°C 28.1°F-2.2°C 74% 3.9 mph SSW6.3 kmh SSW 5.8 mph9.3 kmh 30.18 in1022.0 mb 0.00 in0.0 mm 0.00 in0.0 mm 0.00 in0.0 mm
06:51 AM 35.5°F1.9°C 28.4°F-2.0°C 75% 4.7 mph SSW7.6 kmh SSW 5.8 mph9.3 kmh 30.18 in1022.0 mb 0.00 in0.0 mm 0.00 in0.0 mm 0.00 in0.0 mm
06:56 AM 35.5°F1.9°C 28.7°F-1.8°C 76% 5.3 mph SSW8.5 kmh SSW 7.2 mph11.6 kmh 30.18 in1022.0 mb 0.00 in0.0 mm 0.00 in0.0 mm 0.00 in0.0 mm
07:24 AM 35.0°F1.7°C 27.9°F-2.3°C 75% 2.8 mph WSW4.5 kmh WSW 5.4 mph8.7 kmh 30.18 in1022.0 mb 0.00 in0.0 mm 0.00 in0.0 mm 0.00 in0.0 mm
07:29 AM 35.0°F1.7°C 27.6°F-2.4°C 74% 2.0 mph SSE3.2 kmh SSE 5.0 mph8.0 kmh 30.15 in1021.0 mb 0.00 in0.0 mm 0.00 in0.0 mm 0.00 in0.0 mm
07:34 AM 34.8°F1.6°C 27.4°F-2.6°C 74% 2.4 mph ENE3.9 kmh ENE 4.0 mph6.4 kmh 30.15 in1021.0 mb 0.00 in0.0 mm 0.00 in0.0 mm 0.00 in0.0 mm
07:39 AM 35.0°F1.7°C 27.6°F-2.4°C 74% 2.1 mph ENE3.4 kmh ENE 4.0 mph6.4 kmh 30.15 in1021.0 mb 0.00 in0.0 mm 0.00 in0.0 mm 0.00 in0.0 mm
07:44 AM 35.5°F1.9°C 27.8°F-2.3°C 73% Calm Calm 4.4 mph7.1 kmh 30.12 in1020.0 mb 0.00 in0.0 mm 0.00 in0.0 mm 0.00 in0.0 mm
07:49 AM 35.9°F2.2°C 28.2°F-2.1°C 73% Calm Calm 4.4 mph7.1 kmh 30.12 in1020.0 mb 0.00 in0.0 mm 0.00 in0.0 mm 0.00 in0.0 mm
07:54 AM 36.6°F2.6°C 28.8°F-1.8°C 73% 1.8 mph SSW2.9 kmh SSW 2.6 mph4.2 kmh 30.12 in1020.0 mb 0.00 in0.0 mm 0.00 in0.0 mm 0.00 in0.0 mm
07:59 AM 37.3°F2.9°C 29.2°F-1.6°C 72% 1.8 mph SSW2.9 kmh SSW 2.6 mph4.2 kmh 30.15 in1021.0 mb 0.00 in0.0 mm 0.00 in0.0 mm 0.00 in0.0 mm
08:04 AM 38.4°F3.6°C 29.9°F-1.2°C 71% 3.9 mph SSW6.3 kmh SSW 5.0 mph8.0 kmh 30.15 in1021.0 mb 0.00 in0.0 mm 0.00 in0.0 mm 0.00 in0.0 mm
08:09 AM 39.1°F3.9°C 30.2°F-1.0°C 70% 2.3 mph SW3.7 kmh SW 5.0 mph8.0 kmh 30.15 in1021.0 mb 0.00 in0.0 mm 0.00 in0.0 mm 0.00 in0.0 mm
08:14 AM 39.6°F4.2°C 30.0°F-1.1°C 68% 3.5 mph W5.6 kmh W 5.0 mph8.0 kmh 30.15 in1021.0 mb 0.00 in0.0 mm 0.00 in0.0 mm 0.00 in0.0 mm
08:19 AM 40.4°F4.7°C 30.4°F-0.9°C 67% 3.1 mph SW5.0 kmh SW 5.4 mph8.7 kmh 30.15 in1021.0 mb 0.00 in0.0 mm 0.00 in0.0 mm 0.00 in0.0 mm
08:24 AM 40.9°F4.9°C 30.1°F-1.1°C 65% 4.1 mph S6.6 kmh S 5.8 mph9.3 kmh 30.15 in1021.0 mb 0.00 in0.0 mm 0.00 in0.0 mm 0.00 in0.0 mm
08:29 AM 41.3°F5.2°C 29.3°F-1.5°C 62% 5.1 mph S8.2 kmh S 6.2 mph10.0 kmh 30.15 in1021.0 mb 0.00 in0.0 mm 0.00 in0.0 mm 0.00 in0.0 mm
08:34 AM 41.3°F5.2°C 28.9°F-1.7°C 61% 4.9 mph WSW7.9 kmh WSW 7.6 mph12.2 kmh 30.15 in1021.0 mb 0.00 in0.0 mm 0.00 in0.0 mm 0.00 in0.0 mm
08:39 AM 41.1°F5.1°C 28.7°F-1.8°C 61% 6.4 mph W10.3 kmh W 11.2 mph18.0 kmh 30.15 in1021.0 mb 0.00 in0.0 mm 0.00 in0.0 mm 0.00 in0.0 mm
08:44 AM 41.1°F5.1°C 28.7°F-1.8°C 61% 6.2 mph WSW10.0 kmh WSW 11.2 mph18.0 kmh 30.12 in1020.0 mb 0.00 in0.0 mm 0.00 in0.0 mm 0.00 in0.0 mm
08:49 AM 41.1°F5.1°C 29.1°F-1.6°C 62% 5.3 mph SW8.5 kmh SW 8.6 mph13.8 kmh 30.12 in1020.0 mb 0.00 in0.0 mm 0.00 in0.0 mm 0.00 in0.0 mm
08:54 AM 41.3°F5.2°C 28.9°F-1.7°C 61% 6.4 mph SW10.3 kmh SW 11.2 mph18.0 kmh 30.12 in1020.0 mb 0.00 in0.0 mm 0.00 in0.0 mm 0.00 in0.0 mm
08:59 AM 41.4°F5.2°C 29.0°F-1.7°C 61% 5.9 mph WSW9.5 kmh WSW 11.2 mph18.0 kmh 30.15 in1021.0 mb 0.00 in0.0 mm 0.00 in0.0 mm 0.00 in0.0 mm
09:05 AM 41.6°F5.3°C 28.8°F-1.8°C 60% 5.5 mph WSW8.9 kmh WSW 10.8 mph17.4 kmh 30.15 in1021.0 mb 0.00 in0.0 mm 0.00 in0.0 mm 0.00 in0.0 mm
09:10 AM 42.0°F5.6°C 29.2°F-1.6°C 60% 4.8 mph WSW7.7 kmh WSW 9.8 mph15.8 kmh 30.15 in1021.0 mb 0.00 in0.0 mm 0.00 in0.0 mm 0.00 in0.0 mm
09:15 AM 42.2°F5.7°C 29.4°F-1.4°C 60% 5.2 mph SW8.4 kmh SW 9.8 mph15.8 kmh 30.15 in1021.0 mb 0.00 in0.0 mm 0.00 in0.0 mm 0.00 in0.0 mm
09:20 AM 42.5°F5.8°C 29.2°F-1.6°C 59% 6.5 mph WSW10.5 kmh WSW 9.8 mph15.8 kmh 30.15 in1021.0 mb 0.00 in0.0 mm 0.00 in0.0 mm 0.00 in0.0 mm
09:25 AM 42.9°F6.1°C 29.2°F-1.6°C 58% 5.2 mph WSW8.4 kmh WSW 8.6 mph13.8 kmh 30.15 in1021.0 mb 0.00 in0.0 mm 0.00 in0.0 mm 0.00 in0.0 mm
09:30 AM 43.2°F6.2°C 29.0°F-1.7°C 57% 7.9 mph W12.7 kmh W 10.8 mph17.4 kmh 30.15 in1021.0 mb 0.00 in0.0 mm 0.00 in0.0 mm 0.00 in0.0 mm
09:35 AM 43.6°F6.4°C 29.0°F-1.7°C 56% 7.2 mph WSW11.6 kmh WSW 11.2 mph18.0 kmh 30.15 in1021.0 mb 0.00 in0.0 mm 0.00 in0.0 mm 0.00 in0.0 mm
09:40 AM 44.3°F6.8°C 29.2°F-1.6°C 55% 6.5 mph W10.5 kmh W 11.2 mph18.0 kmh 30.15 in1021.0 mb 0.00 in0.0 mm 0.00 in0.0 mm 0.00 in0.0 mm
09:45 AM 45.2°F7.3°C 30.0°F-1.1°C 55% 4.7 mph SW7.6 kmh SW 10.8 mph17.4 kmh 30.15 in1021.0 mb 0.00 in0.0 mm 0.00 in0.0 mm 0.00 in0.0 mm
09:50 AM 45.8°F7.7°C 29.6°F-1.3°C 53% 7.2 mph W11.6 kmh W 9.8 mph15.8 kmh 30.15 in1021.0 mb 0.00 in0.0 mm 0.00 in0.0 mm 0.00 in0.0 mm
09:55 AM 46.5°F8.1°C 30.3°F-0.9°C 53% 5.2 mph W8.4 kmh W 9.8 mph15.8 kmh 30.15 in1021.0 mb 0.00 in0.0 mm 0.00 in0.0 mm 0.00 in0.0 mm
10:00 AM 47.2°F8.4°C 30.0°F-1.1°C 51% 7.8 mph WSW12.6 kmh WSW 11.2 mph18.0 kmh 30.15 in1021.0 mb 0.00 in0.0 mm 0.00 in0.0 mm 0.00 in0.0 mm
10:05 AM 48.1°F8.9°C 30.3°F-0.9°C 50% 5.9 mph WSW9.5 kmh WSW 11.2 mph18.0 kmh 30.15 in1021.0 mb 0.00 in0.0 mm 0.00 in0.0 mm 0.00 in0.0 mm
10:10 AM 48.8°F9.3°C 30.9°F-0.6°C 50% 7.0 mph W11.3 kmh W 8.6 mph13.8 kmh 30.15 in1021.0 mb 0.00 in0.0 mm 0.00 in0.0 mm 0.00 in0.0 mm
10:15 AM 49.5°F9.7°C 31.6°F-0.2°C 50% 5.3 mph SW8.5 kmh SW 8.6 mph13.8 kmh 30.15 in1021.0 mb 0.00 in0.0 mm 0.00 in0.0 mm 0.00 in0.0 mm
10:20 AM 49.7°F9.8°C 31.8°F-0.1°C 50% 4.9 mph SW7.9 kmh SW 8.6 mph13.8 kmh 30.15 in1021.0 mb 0.00 in0.0 mm 0.00 in0.0 mm 0.00 in0.0 mm
10:25 AM 50.1°F10.1°C 31.6°F-0.2°C 49% 5.0 mph SW8.0 kmh SW 8.6 mph13.8 kmh 30.15 in1021.0 mb 0.00 in0.0 mm 0.00 in0.0 mm 0.00 in0.0 mm
10:30 AM 50.8°F10.4°C 32.3°F0.2°C 49% 7.2 mph WSW11.6 kmh WSW 8.6 mph13.8 kmh 30.18 in1022.0 mb 0.00 in0.0 mm 0.00 in0.0 mm 0.00 in0.0 mm
10:36 AM 51.3°F10.7°C 32.2°F0.1°C 48% 6.3 mph W10.1 kmh W 8.6 mph13.8 kmh 30.18 in1022.0 mb 0.00 in0.0 mm 0.00 in0.0 mm 0.00 in0.0 mm
10:41 AM 51.7°F10.9°C 32.6°F0.3°C 48% 9.3 mph W15.0 kmh W 13.8 mph22.2 kmh 30.18 in1022.0 mb 0.00 in0.0 mm 0.00 in0.0 mm 0.00 in0.0 mm
10:47 AM 52.1°F11.2°C 32.4°F0.2°C 47% 5.8 mph W9.3 kmh W 13.8 mph22.2 kmh 30.15 in1021.0 mb 0.00 in0.0 mm 0.00 in0.0 mm 0.00 in0.0 mm
10:52 AM 52.4°F11.3°C 32.7°F0.4°C 47% 7.0 mph WSW11.3 kmh WSW 11.2 mph18.0 kmh 30.15 in1021.0 mb 0.00 in0.0 mm 0.00 in0.0 mm 0.00 in0.0 mm
10:57 AM 53.1°F11.7°C 33.3°F0.7°C 47% 4.8 mph SW7.7 kmh SW 11.2 mph18.0 kmh 30.15 in1021.0 mb 0.00 in0.0 mm 0.00 in0.0 mm 0.00 in0.0 mm
11:02 AM 53.7°F12.1°C 33.3°F0.7°C 46% 5.7 mph WSW9.2 kmh WSW 9.8 mph15.8 kmh 30.15 in1021.0 mb 0.00 in0.0 mm 0.00 in0.0 mm 0.00 in0.0 mm
11:07 AM 53.9°F12.2°C 33.5°F0.8°C 46% 5.9 mph SSW9.5 kmh SSW 8.6 mph13.8 kmh 30.15 in1021.0 mb 0.00 in0.0 mm 0.00 in0.0 mm 0.00 in0.0 mm
11:12 AM 53.7°F12.1°C 32.7°F0.4°C 45% 8.3 mph WSW13.4 kmh WSW 11.6 mph18.7 kmh 30.15 in1021.0 mb 0.00 in0.0 mm 0.00 in0.0 mm 0.00 in0.0 mm
11:18 AM 53.7°F12.1°C 33.3°F0.7°C 46% 5.4 mph W8.7 kmh W 11.6 mph18.7 kmh 30.15 in1021.0 mb 0.00 in0.0 mm 0.00 in0.0 mm 0.00 in0.0 mm
11:23 AM 53.9°F12.2°C 33.5°F0.8°C 46% 5.0 mph S8.0 kmh S 8.6 mph13.8 kmh 30.15 in1021.0 mb 0.00 in0.0 mm 0.00 in0.0 mm 0.00 in0.0 mm
11:29 AM 53.7°F12.1°C 33.3°F0.7°C 46% 5.8 mph SW9.3 kmh SW 6.8 mph10.9 kmh 30.12 in1020.0 mb 0.00 in0.0 mm 0.00 in0.0 mm 0.00 in0.0 mm
11:34 AM 54.2°F12.3°C 33.7°F0.9°C 46% 4.7 mph SW7.6 kmh SW 6.8 mph10.9 kmh 30.12 in1020.0 mb 0.00 in0.0 mm 0.00 in0.0 mm 0.00 in0.0 mm
11:40 AM 55.3°F12.9°C 34.8°F1.6°C 46% 2.9 mph SW4.7 kmh SW 6.8 mph10.9 kmh 30.12 in1020.0 mb 0.00 in0.0 mm 0.00 in0.0 mm 0.00 in0.0 mm
11:45 AM 55.1°F12.8°C 34.6°F1.4°C 46% 5.7 mph WNW9.2 kmh WNW 8.0 mph12.9 kmh 30.12 in1020.0 mb 0.00 in0.0 mm 0.00 in0.0 mm 0.00 in0.0 mm
11:50 AM 55.8°F13.2°C 34.6°F1.4°C 45% 3.8 mph W6.1 kmh W 8.0 mph12.9 kmh 30.12 in1020.0 mb 0.00 in0.0 mm 0.00 in0.0 mm 0.00 in0.0 mm
11:55 AM 56.0°F13.3°C 34.8°F1.6°C 45% 6.9 mph WSW11.1 kmh WSW 9.8 mph15.8 kmh 30.12 in1020.0 mb 0.00 in0.0 mm 0.00 in0.0 mm 0.00 in0.0 mm
12:00 PM 55.7°F13.2°C 34.0°F1.1°C 44% 7.1 mph SSW11.4 kmh SSW 11.6 mph18.7 kmh 30.09 in1019.0 mb 0.00 in0.0 mm 0.00 in0.0 mm 0.00 in0.0 mm
12:05 PM 55.5°F13.1°C 33.2°F0.7°C 43% 7.9 mph SW12.7 kmh SW 13.0 mph20.9 kmh 30.09 in1019.0 mb 0.00 in0.0 mm 0.00 in0.0 mm 0.00 in0.0 mm
12:14 PM 55.5°F13.1°C 31.4°F-0.3°C 40% 12.9 mph WSW20.8 kmh WSW 21.0 mph33.8 kmh 30.09 in1019.0 mb 0.00 in0.0 mm 0.00 in0.0 mm 0.00 in0.0 mm
12:19 PM 55.8°F13.2°C 32.2°F0.1°C 41% 6.0 mph SW9.7 kmh SW 21.0 mph33.8 kmh 30.09 in1019.0 mb 0.00 in0.0 mm 0.00 in0.0 mm 0.00 in0.0 mm
12:24 PM 56.4°F13.6°C 32.2°F0.1°C 40% 6.3 mph SW10.1 kmh SW 21.0 mph33.8 kmh 30.09 in1019.0 mb 0.00 in0.0 mm 0.00 in0.0 mm 0.00 in0.0 mm
12:29 PM 56.9°F13.8°C 32.6°F0.3°C 40% 7.5 mph SSW12.1 kmh SSW 13.4 mph21.6 kmh 30.09 in1019.0 mb 0.00 in0.0 mm 0.00 in0.0 mm 0.00 in0.0 mm
12:35 PM 56.4°F13.6°C 32.8°F0.4°C 41% 5.9 mph SW9.5 kmh SW 13.4 mph21.6 kmh 30.09 in1019.0 mb 0.00 in0.0 mm 0.00 in0.0 mm 0.00 in0.0 mm
12:40 PM 56.2°F13.4°C 32.6°F0.3°C 41% 7.2 mph SSW11.6 kmh SSW 12.6 mph20.3 kmh 30.09 in1019.0 mb 0.00 in0.0 mm 0.00 in0.0 mm 0.00 in0.0 mm
12:45 PM 55.8°F13.2°C 32.2°F0.1°C 41% 5.1 mph SW8.2 kmh SW 11.6 mph18.7 kmh 30.09 in1019.0 mb 0.00 in0.0 mm 0.00 in0.0 mm 0.00 in0.0 mm
12:50 PM 56.2°F13.4°C 32.6°F0.3°C 41% 7.0 mph S11.3 kmh S 12.0 mph19.3 kmh 30.09 in1019.0 mb 0.00 in0.0 mm 0.00 in0.0 mm 0.00 in0.0 mm
12:56 PM 56.6°F13.7°C 33.6°F0.9°C 42% 6.6 mph SSW10.6 kmh SSW 12.0 mph19.3 kmh 30.09 in1019.0 mb 0.00 in0.0 mm 0.00 in0.0 mm 0.00 in0.0 mm
01:01 PM 57.5°F14.2°C 34.4°F1.3°C 42% 7.0 mph WSW11.3 kmh WSW 11.2 mph18.0 kmh 30.06 in1017.9 mb 0.00 in0.0 mm 0.00 in0.0 mm 0.00 in0.0 mm
01:07 PM 57.5°F14.2°C 34.4°F1.3°C 42% 7.4 mph SW11.9 kmh SW 15.2 mph24.5 kmh 30.06 in1017.9 mb 0.00 in0.0 mm 0.00 in0.0 mm 0.00 in0.0 mm
01:12 PM 58.2°F14.6°C 35.0°F1.7°C 42% 6.2 mph W10.0 kmh W 15.2 mph24.5 kmh 30.06 in1017.9 mb 0.00 in0.0 mm 0.00 in0.0 mm 0.00 in0.0 mm
01:17 PM 58.2°F14.6°C 35.6°F2.0°C 43% 7.8 mph SW12.6 kmh SW 13.0 mph20.9 kmh 30.06 in1017.9 mb 0.00 in0.0 mm 0.00 in0.0 mm 0.00 in0.0 mm
01:22 PM 57.1°F13.9°C 34.6°F1.4°C 43% 11.5 mph W18.5 kmh W 16.2 mph26.1 kmh 30.06 in1017.9 mb 0.00 in0.0 mm 0.00 in0.0 mm 0.00 in0.0 mm
01:27 PM 56.7°F13.7°C 35.5°F1.9°C 45% 7.1 mph S11.4 kmh S 16.2 mph26.1 kmh 30.06 in1017.9 mb 0.00 in0.0 mm 0.00 in0.0 mm 0.00 in0.0 mm
01:32 PM 56.9°F13.8°C 35.6°F2.0°C 45% 8.7 mph WSW14.0 kmh WSW 12.6 mph20.3 kmh 30.03 in1016.9 mb 0.00 in0.0 mm 0.00 in0.0 mm 0.00 in0.0 mm
01:37 PM 57.3°F14.1°C 36.0°F2.2°C 45% 5.2 mph SW8.4 kmh SW 12.6 mph20.3 kmh 30.03 in1016.9 mb 0.00 in0.0 mm 0.00 in0.0 mm 0.00 in0.0 mm
01:42 PM 58.0°F14.4°C 36.6°F2.6°C 45% 7.7 mph SW12.4 kmh SW 11.2 mph18.0 kmh 30.03 in1016.9 mb 0.00 in0.0 mm 0.00 in0.0 mm 0.00 in0.0 mm
01:49 PM 59.3°F15.2°C 37.8°F3.2°C 45% 7.4 mph SW11.9 kmh SW 11.2 mph18.0 kmh 30.00 in1015.9 mb 0.00 in0.0 mm 0.00 in0.0 mm 0.00 in0.0 mm
01:54 PM 58.2°F14.6°C 36.8°F2.7°C 45% 6.8 mph WSW10.9 kmh WSW 15.6 mph25.1 kmh 30.00 in1015.9 mb 0.00 in0.0 mm 0.00 in0.0 mm 0.00 in0.0 mm
02:00 PM 58.0°F14.4°C 36.6°F2.6°C 45% 8.0 mph SW12.9 kmh SW 13.0 mph20.9 kmh 30.00 in1015.9 mb 0.00 in0.0 mm 0.00 in0.0 mm 0.00 in0.0 mm
02:05 PM 57.8°F14.3°C 36.5°F2.5°C 45% 7.4 mph S11.9 kmh S 13.0 mph20.9 kmh 30.00 in1015.9 mb 0.00 in0.0 mm 0.00 in0.0 mm 0.00 in0.0 mm
02:10 PM 57.3°F14.1°C 36.6°F2.6°C 46% 8.8 mph SW14.2 kmh SW 11.6 mph18.7 kmh 30.00 in1015.9 mb 0.00 in0.0 mm 0.00 in0.0 mm 0.00 in0.0 mm
02:15 PM 56.9°F13.8°C 36.8°F2.7°C 47% 5.5 mph SW8.9 kmh SW 12.6 mph20.3 kmh 30.03 in1016.9 mb 0.00 in0.0 mm 0.00 in0.0 mm 0.00 in0.0 mm
02:20 PM 57.6°F14.2°C 36.9°F2.7°C 46% 6.1 mph SW9.8 kmh SW 13.0 mph20.9 kmh 30.03 in1016.9 mb 0.00 in0.0 mm 0.00 in0.0 mm 0.00 in0.0 mm
02:25 PM 57.6°F14.2°C 36.9°F2.7°C 46% 14.3 mph W23.0 kmh W 21.4 mph34.4 kmh 30.03 in1016.9 mb 0.00 in0.0 mm 0.00 in0.0 mm 0.00 in0.0 mm
02:30 PM 58.0°F14.4°C 37.8°F3.2°C 47% 7.5 mph SW12.1 kmh SW 21.4 mph34.4 kmh 30.03 in1016.9 mb 0.00 in0.0 mm 0.00 in0.0 mm 0.00 in0.0 mm
02:35 PM 58.2°F14.6°C 38.0°F3.3°C 47% 7.6 mph WSW12.2 kmh WSW 12.6 mph20.3 kmh 30.03 in1016.9 mb 0.00 in0.0 mm 0.00 in0.0 mm 0.00 in0.0 mm
02:40 PM 58.0°F14.4°C 38.3°F3.5°C 48% 8.0 mph S12.9 kmh S 16.2 mph26.1 kmh 30.03 in1016.9 mb 0.00 in0.0 mm 0.00 in0.0 mm 0.00 in0.0 mm
02:45 PM 57.6°F14.2°C 38.0°F3.3°C 48% 9.6 mph SSW15.4 kmh SSW 16.2 mph26.1 kmh 30.00 in1015.9 mb 0.00 in0.0 mm 0.00 in0.0 mm 0.00 in0.0 mm
02:50 PM 57.1°F13.9°C 38.1°F3.4°C 49% 9.5 mph S15.3 kmh S 14.4 mph23.2 kmh 30.00 in1015.9 mb 0.00 in0.0 mm 0.00 in0.0 mm 0.00 in0.0 mm
02:55 PM 56.9°F13.8°C 37.9°F3.3°C 49% 5.3 mph SSW8.5 kmh SSW 14.4 mph23.2 kmh 30.00 in1015.9 mb 0.00 in0.0 mm 0.00 in0.0 mm 0.00 in0.0 mm
03:00 PM 56.6°F13.7°C 38.6°F3.7°C 51% 5.7 mph SW9.2 kmh SW 12.6 mph20.3 kmh 30.03 in1016.9 mb 0.00 in0.0 mm 0.00 in0.0 mm 0.00 in0.0 mm
03:05 PM 56.2°F13.4°C 38.3°F3.5°C 51% 7.3 mph SSW11.7 kmh SSW 16.2 mph26.1 kmh 30.03 in1016.9 mb 0.00 in0.0 mm 0.00 in0.0 mm 0.00 in0.0 mm
03:10 PM 56.0°F13.3°C 38.6°F3.7°C 52% 7.9 mph SSW12.7 kmh SSW 20.6 mph33.2 kmh 30.03 in1016.9 mb 0.00 in0.0 mm 0.00 in0.0 mm 0.00 in0.0 mm
03:15 PM 55.8°F13.2°C 38.9°F3.8°C 53% 10.2 mph SW16.4 kmh SW 20.6 mph33.2 kmh 30.03 in1016.9 mb 0.00 in0.0 mm 0.00 in0.0 mm 0.00 in0.0 mm
03:20 PM 55.7°F13.2°C 38.8°F3.8°C 53% 10.8 mph S17.4 kmh S 16.2 mph26.1 kmh 30.03 in1016.9 mb 0.00 in0.0 mm 0.00 in0.0 mm 0.00 in0.0 mm
03:25 PM 55.5°F13.1°C 38.6°F3.7°C 53% 9.2 mph SSW14.8 kmh SSW 17.0 mph27.4 kmh 30.03 in1016.9 mb 0.00 in0.0 mm 0.00 in0.0 mm 0.00 in0.0 mm
03:31 PM 55.3°F12.9°C 38.5°F3.6°C 53% 9.0 mph SW14.5 kmh SW 17.0 mph27.4 kmh 30.03 in1016.9 mb 0.00 in0.0 mm 0.00 in0.0 mm 0.00 in0.0 mm
03:36 PM 55.3°F12.9°C 38.5°F3.6°C 53% 7.3 mph SW11.7 kmh SW 12.6 mph20.3 kmh 30.03 in1016.9 mb 0.00 in0.0 mm 0.00 in0.0 mm 0.00 in0.0 mm
03:42 PM 55.3°F12.9°C 38.5°F3.6°C 53% 7.8 mph SW12.6 kmh SW 12.6 mph20.3 kmh 30.03 in1016.9 mb 0.00 in0.0 mm 0.00 in0.0 mm 0.00 in0.0 mm
03:47 PM 55.3°F12.9°C 38.5°F3.6°C 53% 6.5 mph SW10.5 kmh SW 11.2 mph18.0 kmh 30.00 in1015.9 mb 0.00 in0.0 mm 0.00 in0.0 mm 0.00 in0.0 mm
03:53 PM 55.5°F13.1°C 38.6°F3.7°C 53% 7.5 mph SW12.1 kmh SW 13.0 mph20.9 kmh 30.00 in1015.9 mb 0.00 in0.0 mm 0.00 in0.0 mm 0.00 in0.0 mm
03:58 PM 55.1°F12.8°C 38.8°F3.8°C 54% 7.9 mph SSW12.7 kmh SSW 13.0 mph20.9 kmh 30.00 in1015.9 mb 0.00 in0.0 mm 0.00 in0.0 mm 0.00 in0.0 mm
04:03 PM 55.1°F12.8°C 39.2°F4.0°C 55% 5.8 mph SW9.3 kmh SW 12.0 mph19.3 kmh 30.00 in1015.9 mb 0.00 in0.0 mm 0.00 in0.0 mm 0.00 in0.0 mm
04:08 PM 55.1°F12.8°C 39.2°F4.0°C 55% 7.8 mph SSW12.6 kmh SSW 13.0 mph20.9 kmh 30.00 in1015.9 mb 0.00 in0.0 mm 0.00 in0.0 mm 0.00 in0.0 mm
04:13 PM 55.1°F12.8°C 39.7°F4.3°C 56% 5.9 mph S9.5 kmh S 17.0 mph27.4 kmh 30.00 in1015.9 mb 0.00 in0.0 mm 0.00 in0.0 mm 0.00 in0.0 mm
04:18 PM 55.1°F12.8°C 40.2°F4.6°C 57% 7.0 mph SSW11.3 kmh SSW 17.0 mph27.4 kmh 30.00 in1015.9 mb 0.00 in0.0 mm 0.00 in0.0 mm 0.00 in0.0 mm
04:23 PM 55.1°F12.8°C 40.2°F4.6°C 57% 7.2 mph SSW11.6 kmh SSW 11.6 mph18.7 kmh 30.00 in1015.9 mb 0.00 in0.0 mm 0.00 in0.0 mm 0.00 in0.0 mm
04:28 PM 55.1°F12.8°C 40.6°F4.8°C 58% 9.9 mph SW15.9 kmh SW 15.2 mph24.5 kmh 30.00 in1015.9 mb 0.00 in0.0 mm 0.00 in0.0 mm 0.00 in0.0 mm
04:56 PM 54.8°F12.7°C 40.8°F4.9°C 59% 6.3 mph SW10.1 kmh SW 11.6 mph18.7 kmh 30.00 in1015.9 mb 0.00 in0.0 mm 0.00 in0.0 mm 0.00 in0.0 mm
05:02 PM 54.8°F12.7°C 41.3°F5.2°C 60% 5.7 mph SW9.2 kmh SW 9.8 mph15.8 kmh 30.00 in1015.9 mb 0.00 in0.0 mm 0.00 in0.0 mm 0.00 in0.0 mm
05:07 PM 54.6°F12.6°C 41.1°F5.1°C 60% 7.0 mph SW11.3 kmh SW 12.0 mph19.3 kmh 30.00 in1015.9 mb 0.00 in0.0 mm 0.00 in0.0 mm 0.00 in0.0 mm
05:25 PM 54.2°F12.3°C 41.1°F5.1°C 61% 6.1 mph SW9.8 kmh SW 9.4 mph15.1 kmh 30.00 in1015.9 mb 0.00 in0.0 mm 0.00 in0.0 mm 0.00 in0.0 mm
05:35 PM 53.5°F11.9°C 41.3°F5.2°C 63% 7.3 mph SW11.7 kmh SW 10.8 mph17.4 kmh 30.00 in1015.9 mb 0.00 in0.0 mm 0.00 in0.0 mm 0.00 in0.0 mm
05:40 PM 53.5°F11.9°C 41.7°F5.4°C 64% 6.9 mph SSW11.1 kmh SSW 10.8 mph17.4 kmh 30.00 in1015.9 mb 0.00 in0.0 mm 0.00 in0.0 mm 0.00 in0.0 mm
05:45 PM 53.3°F11.8°C 41.9°F5.5°C 65% 5.9 mph SW9.5 kmh SW 10.8 mph17.4 kmh 30.00 in1015.9 mb 0.00 in0.0 mm 0.00 in0.0 mm 0.00 in0.0 mm
05:50 PM 53.0°F11.7°C 41.6°F5.3°C 65% 5.6 mph SSW9.0 kmh SSW 9.8 mph15.8 kmh 30.00 in1015.9 mb 0.00 in0.0 mm 0.00 in0.0 mm 0.00 in0.0 mm
06:00 PM 53.0°F11.7°C 42.4°F5.8°C 67% 6.3 mph SSW10.1 kmh SSW 9.8 mph15.8 kmh 30.00 in1015.9 mb 0.00 in0.0 mm 0.00 in0.0 mm 0.00 in0.0 mm
06:06 PM 53.0°F11.7°C 42.4°F5.8°C 67% 6.3 mph SW10.1 kmh SW 9.4 mph15.1 kmh 30.00 in1015.9 mb 0.00 in0.0 mm 0.00 in0.0 mm 0.00 in0.0 mm
06:11 PM 53.0°F11.7°C 42.8°F6.0°C 68% 6.0 mph SSW9.7 kmh SSW 9.8 mph15.8 kmh 30.00 in1015.9 mb 0.00 in0.0 mm 0.00 in0.0 mm 0.00 in0.0 mm
06:16 PM 53.1°F11.7°C 42.9°F6.1°C 68% 5.9 mph SSW9.5 kmh SSW 9.8 mph15.8 kmh 29.97 in1014.9 mb 0.00 in0.0 mm 0.00 in0.0 mm 0.00 in0.0 mm
06:21 PM 53.0°F11.7°C 42.8°F6.0°C 68% 6.3 mph SW10.1 kmh SW 12.6 mph20.3 kmh 29.97 in1014.9 mb 0.00 in0.0 mm 0.00 in0.0 mm 0.00 in0.0 mm
06:29 PM 53.0°F11.7°C 43.2°F6.2°C 69% 5.2 mph SSW8.4 kmh SSW 12.6 mph20.3 kmh 29.97 in1014.9 mb 0.00 in0.0 mm 0.00 in0.0 mm 0.00 in0.0 mm
06:34 PM 53.1°F11.7°C 43.3°F6.3°C 69% 7.2 mph SSW11.6 kmh SSW 9.4 mph15.1 kmh 29.97 in1014.9 mb 0.00 in0.0 mm 0.00 in0.0 mm 0.00 in0.0 mm
06:40 PM 53.5°F11.9°C 43.3°F6.3°C 68% 8.8 mph SSW14.2 kmh SSW 11.6 mph18.7 kmh 29.97 in1014.9 mb 0.00 in0.0 mm 0.00 in0.0 mm 0.00 in0.0 mm
06:45 PM 53.7°F12.1°C 43.5°F6.4°C 68% 6.9 mph SW11.1 kmh SW 11.6 mph18.7 kmh 29.97 in1014.9 mb 0.00 in0.0 mm 0.00 in0.0 mm 0.00 in0.0 mm
06:50 PM 53.9°F12.2°C 43.7°F6.5°C 68% 8.6 mph SSW13.8 kmh SSW 11.2 mph18.0 kmh 29.97 in1014.9 mb 0.00 in0.0 mm 0.00 in0.0 mm 0.00 in0.0 mm
06:55 PM 53.9°F12.2°C 43.7°F6.5°C 68% 6.5 mph SSW10.5 kmh SSW 12.6 mph20.3 kmh 29.97 in1014.9 mb 0.00 in0.0 mm 0.00 in0.0 mm 0.00 in0.0 mm
07:00 PM 53.9°F12.2°C 43.7°F6.5°C 68% 8.6 mph SW13.8 kmh SW 13.8 mph22.2 kmh 29.97 in1014.9 mb 0.00 in0.0 mm 0.00 in0.0 mm 0.00 in0.0 mm
07:05 PM 53.9°F12.2°C 43.7°F6.5°C 68% 7.5 mph SSW12.1 kmh SSW 13.8 mph22.2 kmh 29.97 in1014.9 mb 0.00 in0.0 mm 0.00 in0.0 mm 0.00 in0.0 mm
07:11 PM 53.9°F12.2°C 43.7°F6.5°C 68% 6.6 mph SW10.6 kmh SW 10.8 mph17.4 kmh 29.97 in1014.9 mb 0.00 in0.0 mm 0.00 in0.0 mm 0.00 in0.0 mm
07:16 PM 53.7°F12.1°C 43.5°F6.4°C 68% 3.6 mph SW5.8 kmh SW 10.8 mph17.4 kmh 29.97 in1014.9 mb 0.00 in0.0 mm 0.00 in0.0 mm 0.00 in0.0 mm
07:21 PM 53.5°F11.9°C 43.7°F6.5°C 69% 5.6 mph SSW9.0 kmh SSW 13.0 mph20.9 kmh 29.97 in1014.9 mb 0.00 in0.0 mm 0.00 in0.0 mm 0.00 in0.0 mm
07:26 PM 53.7°F12.1°C 44.2°F6.8°C 70% 5.8 mph SSW9.3 kmh SSW 13.0 mph20.9 kmh 29.97 in1014.9 mb 0.00 in0.0 mm 0.00 in0.0 mm 0.00 in0.0 mm
07:32 PM 53.7°F12.1°C 44.2°F6.8°C 70% 5.4 mph SSW8.7 kmh SSW 9.8 mph15.8 kmh 29.94 in1013.9 mb 0.00 in0.0 mm 0.00 in0.0 mm 0.00 in0.0 mm
07:37 PM 53.9°F12.2°C 44.8°F7.1°C 71% 7.3 mph SW11.7 kmh SW 12.0 mph19.3 kmh 29.94 in1013.9 mb 0.00 in0.0 mm 0.00 in0.0 mm 0.00 in0.0 mm
07:42 PM 53.9°F12.2°C 44.8°F7.1°C 71% 5.0 mph W8.0 kmh W 12.0 mph19.3 kmh 29.94 in1013.9 mb 0.00 in0.0 mm 0.00 in0.0 mm 0.00 in0.0 mm
07:47 PM 54.2°F12.3°C 45.1°F7.3°C 71% 6.0 mph SSW9.7 kmh SSW 11.2 mph18.0 kmh 29.94 in1013.9 mb 0.00 in0.0 mm 0.00 in0.0 mm 0.00 in0.0 mm
07:52 PM 54.0°F12.2°C 44.9°F7.2°C 71% 5.9 mph SW9.5 kmh SW 11.2 mph18.0 kmh 29.94 in1013.9 mb 0.00 in0.0 mm 0.00 in0.0 mm 0.00 in0.0 mm
07:57 PM 54.0°F12.2°C 45.2°F7.3°C 72% 4.4 mph S7.1 kmh S 7.6 mph12.2 kmh 29.94 in1013.9 mb 0.00 in0.0 mm 0.00 in0.0 mm 0.00 in0.0 mm
08:04 PM 54.0°F12.2°C 45.6°F7.6°C 73% 6.1 mph SSW9.8 kmh SSW 12.0 mph19.3 kmh 29.97 in1014.9 mb 0.00 in0.0 mm 0.00 in0.0 mm 0.00 in0.0 mm
08:09 PM 54.0°F12.2°C 45.6°F7.6°C 73% 7.6 mph SW12.2 kmh SW 12.0 mph19.3 kmh 29.97 in1014.9 mb 0.00 in0.0 mm 0.00 in0.0 mm 0.00 in0.0 mm
08:15 PM 54.2°F12.3°C 45.8°F7.7°C 73% 5.7 mph SW9.2 kmh SW 11.6 mph18.7 kmh 29.97 in1014.9 mb 0.00 in0.0 mm 0.00 in0.0 mm 0.00 in0.0 mm
08:20 PM 54.2°F12.3°C 45.8°F7.7°C 73% 7.6 mph SSW12.2 kmh SSW 11.2 mph18.0 kmh 29.97 in1014.9 mb 0.00 in0.0 mm 0.00 in0.0 mm 0.00 in0.0 mm
08:25 PM 54.0°F12.2°C 45.6°F7.6°C 73% 6.1 mph WSW9.8 kmh WSW 11.2 mph18.0 kmh 29.97 in1014.9 mb 0.00 in0.0 mm 0.00 in0.0 mm 0.00 in0.0 mm
08:30 PM 53.9°F12.2°C 45.9°F7.7°C 74% 6.3 mph SW10.1 kmh SW 10.8 mph17.4 kmh 29.97 in1014.9 mb 0.00 in0.0 mm 0.00 in0.0 mm 0.00 in0.0 mm
08:35 PM 54.0°F12.2°C 46.0°F7.8°C 74% 6.5 mph SW10.5 kmh SW 9.8 mph15.8 kmh 29.97 in1014.9 mb 0.00 in0.0 mm 0.00 in0.0 mm 0.00 in0.0 mm
08:40 PM 53.9°F12.2°C 45.9°F7.7°C 74% 4.5 mph SW7.2 kmh SW 9.8 mph15.8 kmh 29.97 in1014.9 mb 0.00 in0.0 mm 0.00 in0.0 mm 0.00 in0.0 mm
08:46 PM 53.9°F12.2°C 45.9°F7.7°C 74% 4.3 mph WSW6.9 kmh WSW 9.4 mph15.1 kmh 29.97 in1014.9 mb 0.00 in0.0 mm 0.00 in0.0 mm 0.00 in0.0 mm
08:51 PM 53.7°F12.1°C 45.7°F7.6°C 74% 5.2 mph SW8.4 kmh SW 7.2 mph11.6 kmh 29.97 in1014.9 mb 0.00 in0.0 mm 0.00 in0.0 mm 0.00 in0.0 mm
08:56 PM 53.5°F11.9°C 45.5°F7.5°C 74% 5.2 mph W8.4 kmh W 7.2 mph11.6 kmh 29.97 in1014.9 mb 0.00 in0.0 mm 0.00 in0.0 mm 0.00 in0.0 mm
09:01 PM 53.1°F11.7°C 45.1°F7.3°C 74% 4.3 mph WSW6.9 kmh WSW 7.2 mph11.6 kmh 29.97 in1014.9 mb 0.00 in0.0 mm 0.00 in0.0 mm 0.00 in0.0 mm
09:06 PM 53.0°F11.7°C 45.0°F7.2°C 74% 3.9 mph SSW6.3 kmh SSW 6.2 mph10.0 kmh 29.97 in1014.9 mb 0.00 in0.0 mm 0.00 in0.0 mm 0.00 in0.0 mm
09:11 PM 53.0°F11.7°C 45.3°F7.4°C 75% 4.5 mph SSW7.2 kmh SSW 6.2 mph10.0 kmh 29.97 in1014.9 mb 0.00 in0.0 mm 0.00 in0.0 mm 0.00 in0.0 mm
09:16 PM 53.1°F11.7°C 45.4°F7.4°C 75% 3.5 mph SW5.6 kmh SW 6.8 mph10.9 kmh 29.94 in1013.9 mb 0.00 in0.0 mm 0.00 in0.0 mm 0.00 in0.0 mm
09:21 PM 53.1°F11.7°C 45.4°F7.4°C 75% 4.3 mph SW6.9 kmh SW 6.8 mph10.9 kmh 29.94 in1013.9 mb 0.00 in0.0 mm 0.00 in0.0 mm 0.00 in0.0 mm
09:26 PM 53.1°F11.7°C 45.4°F7.4°C 75% 5.4 mph SSW8.7 kmh SSW 8.0 mph12.9 kmh 29.94 in1013.9 mb 0.00 in0.0 mm 0.00 in0.0 mm 0.00 in0.0 mm
09:31 PM 53.3°F11.8°C 45.6°F7.6°C 75% 6.8 mph SSW10.9 kmh SSW 8.6 mph13.8 kmh 29.94 in1013.9 mb 0.00 in0.0 mm 0.00 in0.0 mm 0.00 in0.0 mm
09:37 PM 53.3°F11.8°C 45.6°F7.6°C 75% 5.0 mph SW8.0 kmh SW 8.6 mph13.8 kmh 29.94 in1013.9 mb 0.00 in0.0 mm 0.00 in0.0 mm 0.00 in0.0 mm
09:42 PM 53.3°F11.8°C 45.6°F7.6°C 75% 6.7 mph SW10.8 kmh SW 9.4 mph15.1 kmh 29.94 in1013.9 mb 0.00 in0.0 mm 0.00 in0.0 mm 0.00 in0.0 mm
09:47 PM 53.1°F11.7°C 45.4°F7.4°C 75% 5.3 mph SW8.5 kmh SW 9.4 mph15.1 kmh 29.91 in1012.9 mb 0.00 in0.0 mm 0.00 in0.0 mm 0.00 in0.0 mm
09:52 PM 53.3°F11.8°C 45.6°F7.6°C 75% 6.2 mph SSW10.0 kmh SSW 8.6 mph13.8 kmh 29.91 in1012.9 mb 0.00 in0.0 mm 0.00 in0.0 mm 0.00 in0.0 mm
09:58 PM 53.5°F11.9°C 45.8°F7.7°C 75% 7.4 mph S11.9 kmh S 10.8 mph17.4 kmh 29.91 in1012.9 mb 0.00 in0.0 mm 0.00 in0.0 mm 0.00 in0.0 mm
10:03 PM 53.9°F12.2°C 46.2°F7.9°C 75% 5.9 mph SW9.5 kmh SW 11.2 mph18.0 kmh 29.88 in1011.9 mb 0.00 in0.0 mm 0.00 in0.0 mm 0.00 in0.0 mm
10:09 PM 53.9°F12.2°C 46.2°F7.9°C 75% 5.6 mph SW9.0 kmh SW 9.4 mph15.1 kmh 29.88 in1011.9 mb 0.00 in0.0 mm 0.00 in0.0 mm 0.00 in0.0 mm
10:14 PM 53.5°F11.9°C 45.5°F7.5°C 74% 5.7 mph SW9.2 kmh SW 10.8 mph17.4 kmh 29.91 in1012.9 mb 0.00 in0.0 mm 0.00 in0.0 mm 0.00 in0.0 mm
10:19 PM 53.5°F11.9°C 45.8°F7.7°C 75% 5.7 mph SSW9.2 kmh SSW 11.2 mph18.0 kmh 29.91 in1012.9 mb 0.00 in0.0 mm 0.00 in0.0 mm 0.00 in0.0 mm
10:24 PM 53.5°F11.9°C 45.8°F7.7°C 75% 6.4 mph SW10.3 kmh SW 11.2 mph18.0 kmh 29.91 in1012.9 mb 0.00 in0.0 mm 0.00 in0.0 mm 0.00 in0.0 mm
10:29 PM 53.9°F12.2°C 46.6°F8.1°C 76% 6.5 mph SW10.5 kmh SW 11.2 mph18.0 kmh 29.88 in1011.9 mb 0.00 in0.0 mm 0.00 in0.0 mm 0.00 in0.0 mm
10:34 PM 54.0°F12.2°C 46.6°F8.1°C 76% 5.8 mph SW9.3 kmh SW 12.0 mph19.3 kmh 29.88 in1011.9 mb 0.00 in0.0 mm 0.00 in0.0 mm 0.00 in0.0 mm
10:39 PM 53.9°F12.2°C 46.6°F8.1°C 76% 5.1 mph SSW8.2 kmh SSW 12.0 mph19.3 kmh 29.88 in1011.9 mb 0.00 in0.0 mm 0.00 in0.0 mm 0.00 in0.0 mm
10:44 PM 53.9°F12.2°C 46.6°F8.1°C 76% 5.3 mph SW8.5 kmh SW 10.8 mph17.4 kmh 29.91 in1012.9 mb 0.00 in0.0 mm 0.00 in0.0 mm 0.00 in0.0 mm
10:49 PM 53.7°F12.1°C 46.7°F8.2°C 77% 6.5 mph SW10.5 kmh SW 8.6 mph13.8 kmh 29.91 in1012.9 mb 0.00 in0.0 mm 0.00 in0.0 mm 0.00 in0.0 mm
10:54 PM 53.5°F11.9°C 46.5°F8.1°C 77% 6.5 mph SW10.5 kmh SW 8.0 mph12.9 kmh 29.91 in1012.9 mb 0.00 in0.0 mm 0.00 in0.0 mm 0.00 in0.0 mm
11:00 PM 53.7°F12.1°C 47.0°F8.3°C 78% 7.1 mph SW11.4 kmh SW 9.8 mph15.8 kmh 29.91 in1012.9 mb 0.00 in0.0 mm 0.00 in0.0 mm 0.00 in0.0 mm
11:05 PM 54.0°F12.2°C 47.3°F8.5°C 78% 6.2 mph SW10.0 kmh SW 9.8 mph15.8 kmh 29.91 in1012.9 mb 0.00 in0.0 mm 0.00 in0.0 mm 0.00 in0.0 mm
11:10 PM 54.2°F12.3°C 47.5°F8.6°C 78% 6.7 mph W10.8 kmh W 9.4 mph15.1 kmh 29.91 in1012.9 mb 0.00 in0.0 mm 0.00 in0.0 mm 0.00 in0.0 mm
11:15 PM 54.4°F12.4°C 47.7°F8.7°C 78% 6.3 mph WSW10.1 kmh WSW 10.8 mph17.4 kmh 29.94 in1013.9 mb 0.00 in0.0 mm 0.00 in0.0 mm 0.00 in0.0 mm
11:20 PM 54.4°F12.4°C 47.7°F8.7°C 78% 9.1 mph WSW14.6 kmh WSW 11.6 mph18.7 kmh 29.94 in1013.9 mb 0.00 in0.0 mm 0.00 in0.0 mm 0.00 in0.0 mm
11:25 PM 54.8°F12.7°C 48.1°F8.9°C 78% 8.0 mph W12.9 kmh W 12.0 mph19.3 kmh 29.94 in1013.9 mb 0.00 in0.0 mm 0.00 in0.0 mm 0.00 in0.0 mm
11:30 PM 54.9°F12.7°C 48.2°F9.0°C 78% 7.9 mph SW12.7 kmh SW 12.0 mph19.3 kmh 29.91 in1012.9 mb 0.00 in0.0 mm 0.00 in0.0 mm 0.00 in0.0 mm
11:35 PM 54.9°F12.7°C 48.2°F9.0°C 78% 7.8 mph WSW12.6 kmh WSW 14.8 mph23.8 kmh 29.91 in1012.9 mb 0.00 in0.0 mm 0.00 in0.0 mm 0.00 in0.0 mm
11:40 PM 55.1°F12.8°C 48.4°F9.1°C 78% 6.7 mph WSW10.8 kmh WSW 14.8 mph23.8 kmh 29.91 in1012.9 mb 0.00 in0.0 mm 0.00 in0.0 mm 0.00 in0.0 mm
11:45 PM 55.1°F12.8°C 48.4°F9.1°C 78% 7.1 mph WSW11.4 kmh WSW 11.6 mph18.7 kmh 29.91 in1012.9 mb 0.00 in0.0 mm 0.00 in0.0 mm 0.00 in0.0 mm
11:51 PM 55.3°F12.9°C 48.2°F9.0°C 77% 6.7 mph W10.8 kmh W 12.0 mph19.3 kmh 29.91 in1012.9 mb 0.00 in0.0 mm 0.00 in0.0 mm 0.00 in0.0 mm
11:56 PM 55.5°F13.1°C 48.4°F9.1°C 77% 9.6 mph W15.4 kmh W 13.0 mph20.9 kmh 29.91 in1012.9 mb 0.00 in0.0 mm 0.00 in0.0 mm 0.00 in0.0 mm